首页
METAR-TAF:

METAR-TAF

机场 :

哥伦比亚, 南卡罗来纳州, 美国

纬度: 33-56-31N, 经度: 081-07-05W, 海拔: 71米

当前天气观测

该预报发布于57分钟前的19:56 UTC
静风
温度 11°C
湿度 50%
气压 1023 hPa
能見度: 16.1公里
多云层高于12000英尺
多云层高于25000英尺

METAR: KCAE 231956Z 00000KT 10SM BKN120 BKN250 11/01 A3020 RMK AO2 SLP228 T01060006

时间: 15:53 (20:53 UTC)

预报

该预报发布于3小时和19分钟前的17:34 UTC
预报有效从23日的 18点(UTC)到 24日的 18点(UTC)
风速8节,风向东北
能見度: 10公里
多云层高于12000英尺
从 24日的 0400点(UTC)
风速5节,风向东转东北
能見度: 10公里
阴天层高于2500英尺
附近有阵雨
从 24日的 0800点(UTC)
风速5节,风向东转东北
能見度: 6.4公里
阴天层高于800英尺
阵雨
从 24日的 1000点(UTC)
风速4节,风向
能見度: 3.2公里
阴天层高于400英尺
轻雾
从 24日的 1500点(UTC)
风速7节,风向东转东南
能見度: 6.4公里
阴天层高于800英尺
阵雨

TAF: KCAE 231734Z 2318/2418 04008KT P6SM BKN120 FM240400 07005KT P6SM VCSH OVC025 FM240800 07005KT 4SM SHRA OVC008 FM241000 08004KT 2SM BR OVC004 FM241500 12007KT 4SM SHRA OVC008

超过4000个机场的气象观测和天气预报(METAR&TAF报告)。

可查询的气象台以黄色和红色小点在地图上表示。

将鼠标移到小点上方,可查看气象台名称。

然后点击查看天气观测和预报。

如需切换地图:点击带黑十字的绿色按钮放大地图;点击带横线的绿色按钮缩小地图;或者点击绿色箭头查看邻近地区的地图。


METAR-TAF: